sensor_id;sensor_type;location;lat;lon;timestamp;pressure;altitude;pressure_sealevel;temperature;humidity
22930;BME280;11630;42.660;23.292;2023-06-26T00:01:19;69792.52;;;20.43;100.00
22930;BME280;11630;42.660;23.292;2023-06-26T00:03:49;69807.16;;;20.42;100.00
22930;BME280;11630;42.660;23.292;2023-06-26T00:06:21;69793.64;;;20.41;100.00
22930;BME280;11630;42.660;23.292;2023-06-26T00:08:52;69784.54;;;20.42;100.00
22930;BME280;11630;42.660;23.292;2023-06-26T00:11:24;69811.73;;;20.58;100.00
22930;BME280;11630;42.660;23.292;2023-06-26T00:13:55;69787.89;;;20.32;100.00
22930;BME280;11630;42.660;23.292;2023-06-26T00:16:26;69802.73;;;20.43;100.00
22930;BME280;11630;42.660;23.292;2023-06-26T00:18:56;69799.98;;;20.43;100.00
22930;BME280;11630;42.660;23.292;2023-06-26T00:21:27;69783.48;;;20.33;100.00
22930;BME280;11630;42.660;23.292;2023-06-26T00:23:56;69785.42;;;20.34;100.00
22930;BME280;11630;42.660;23.292;2023-06-26T00:26:28;69780.73;;;20.31;100.00
22930;BME280;11630;42.660;23.292;2023-06-26T00:28:58;69788.17;;;20.31;100.00
22930;BME280;11630;42.660;23.292;2023-06-26T00:31:29;69778.82;;;20.30;100.00
22930;BME280;11630;42.660;23.292;2023-06-26T00:33:59;69757.09;;;20.19;100.00
22930;BME280;11630;42.660;23.292;2023-06-26T00:36:30;69769.77;;;20.21;100.00
22930;BME280;11630;42.660;23.292;2023-06-26T00:39:01;69776.09;;;20.23;100.00
22930;BME280;11630;42.660;23.292;2023-06-26T00:41:31;69769.78;;;20.18;100.00
22930;BME280;11630;42.660;23.292;2023-06-26T00:44:03;69764.86;;;20.11;100.00
22930;BME280;11630;42.660;23.292;2023-06-26T00:46:35;69758.00;;;20.07;100.00
22930;BME280;11630;42.660;23.292;2023-06-26T00:49:07;69766.52;;;20.10;100.00
22930;BME280;11630;42.660;23.292;2023-06-26T00:51:38;69761.83;;;20.12;100.00
22930;BME280;11630;42.660;23.292;2023-06-26T00:54:08;69769.28;;;20.10;100.00
22930;BME280;11630;42.660;23.292;2023-06-26T00:56:40;69764.88;;;20.09;100.00
22930;BME280;11630;42.660;23.292;2023-06-26T00:59:11;69778.34;;;20.17;100.00
22930;BME280;11630;42.660;23.292;2023-06-26T01:01:43;69758.83;;;20.09;100.00
22930;BME280;11630;42.660;23.292;2023-06-26T01:04:14;69753.30;;;20.06;100.00
22930;BME280;11630;42.660;23.292;2023-06-26T01:06:49;69773.09;;;20.16;100.00
22930;BME280;11630;42.660;23.292;2023-06-26T01:09:21;69762.66;;;20.09;100.00
22930;BME280;11630;42.660;23.292;2023-06-26T01:11:53;69755.28;;;20.02;100.00
22930;BME280;11630;42.660;23.292;2023-06-26T01:14:24;69739.86;;;19.98;100.00
22930;BME280;11630;42.660;23.292;2023-06-26T01:16:55;69753.31;;;20.09;100.00
22930;BME280;11630;42.660;23.292;2023-06-26T01:19:27;69759.34;;;20.11;100.00
22930;BME280;11630;42.660;23.292;2023-06-26T01:25:01;69766.20;;;20.16;100.00
22930;BME280;11630;42.660;23.292;2023-06-26T01:27:28;69762.61;;;20.19;100.00
22930;BME280;11630;42.660;23.292;2023-06-26T01:30:02;69770.06;;;20.17;100.00
22930;BME280;11630;42.660;23.292;2023-06-26T01:32:34;69759.11;;;20.08;100.00
22930;BME280;11630;42.660;23.292;2023-06-26T01:35:08;69755.52;;;20.06;100.00
22930;BME280;11630;42.660;23.292;2023-06-26T01:37:43;69770.14;;;20.08;100.00
22930;BME280;11630;42.660;23.292;2023-06-26T01:40:14;69758.33;;;20.01;100.00
22930;BME280;11630;42.660;23.292;2023-06-26T01:42:44;69746.97;;;20.07;100.00
22930;BME280;11630;42.660;23.292;2023-06-26T01:45:19;69742.89;;;19.97;100.00
22930;BME280;11630;42.660;23.292;2023-06-26T01:47:49;69741.81;;;19.91;100.00
22930;BME280;11630;42.660;23.292;2023-06-26T01:50:22;69723.34;;;19.88;100.00
22930;BME280;11630;42.660;23.292;2023-06-26T01:53:07;69721.47;;;19.80;100.00
22930;BME280;11630;42.660;23.292;2023-06-26T01:55:58;69742.61;;;19.98;100.00
22930;BME280;11630;42.660;23.292;2023-06-26T01:58:23;69738.81;;;19.84;100.00
22930;BME280;11630;42.660;23.292;2023-06-26T02:00:55;69744.55;;;19.96;100.00
22930;BME280;11630;42.660;23.292;2023-06-26T02:03:26;69726.69;;;19.86;100.00
22930;BME280;11630;42.660;23.292;2023-06-26T02:05:58;69739.59;;;19.94;100.00
22930;BME280;11630;42.660;23.292;2023-06-26T02:08:29;69751.98;;;19.99;100.00
22930;BME280;11630;42.660;23.292;2023-06-26T02:11:00;69744.02;;;19.88;100.00
22930;BME280;11630;42.660;23.292;2023-06-26T02:13:31;69723.38;;;19.83;100.00
22930;BME280;11630;42.660;23.292;2023-06-26T02:16:01;69742.13;;;19.85;100.00
22930;BME280;11630;42.660;23.292;2023-06-26T02:18:32;69730.28;;;19.83;100.00
22930;BME280;11630;42.660;23.292;2023-06-26T02:21:06;69725.34;;;19.78;100.00
22930;BME280;11630;42.660;23.292;2023-06-26T02:23:40;69713.52;;;19.74;100.00
22930;BME280;11630;42.660;23.292;2023-06-26T02:26:12;69732.75;;;19.84;100.00
22930;BME280;11630;42.660;23.292;2023-06-26T02:28:43;69721.19;;;19.81;100.00
22930;BME280;11630;42.660;23.292;2023-06-26T02:31:14;69709.97;;;19.67;100.00
22930;BME280;11630;42.660;23.292;2023-06-26T02:33:51;69718.78;;;19.70;100.00
22930;BME280;11630;42.660;23.292;2023-06-26T02:36:22;69733.88;;;19.80;100.00
22930;BME280;11630;42.660;23.292;2023-06-26T02:38:53;69728.08;;;19.81;100.00
22930;BME280;11630;42.660;23.292;2023-06-26T02:41:24;69723.70;;;19.77;100.00
22930;BME280;11630;42.660;23.292;2023-06-26T02:43:55;69719.30;;;19.75;100.00
22930;BME280;11630;42.660;23.292;2023-06-26T02:46:26;69709.41;;;19.69;100.00
22930;BME280;11630;42.660;23.292;2023-06-26T02:48:57;69707.80;;;19.65;100.00
22930;BME280;11630;42.660;23.292;2023-06-26T02:51:31;69730.00;;;19.84;100.00
22930;BME280;11630;42.660;23.292;2023-06-26T02:54:01;69742.35;;;19.94;100.00
22930;BME280;11630;42.660;23.292;2023-06-26T02:56:33;69734.09;;;19.89;100.00
22930;BME280;11630;42.660;23.292;2023-06-26T02:59:03;69720.39;;;19.79;100.00
22930;BME280;11630;42.660;23.292;2023-06-26T03:01:34;69736.63;;;19.80;100.00
22930;BME280;11630;42.660;23.292;2023-06-26T03:04:05;69719.88;;;19.71;100.00
22930;BME280;11630;42.660;23.292;2023-06-26T03:06:40;69721.54;;;19.70;100.00
22930;BME280;11630;42.660;23.292;2023-06-26T03:09:10;69713.30;;;19.62;100.00
22930;BME280;11630;42.660;23.292;2023-06-26T03:11:42;69713.79;;;19.73;100.00
22930;BME280;11630;42.660;23.292;2023-06-26T03:14:15;69735.56;;;19.74;100.00
22930;BME280;11630;42.660;23.292;2023-06-26T03:16:47;69722.06;;;19.75;100.00
22930;BME280;11630;42.660;23.292;2023-06-26T03:19:18;69717.41;;;19.70;100.00
22930;BME280;11630;42.660;23.292;2023-06-26T03:21:49;69729.73;;;19.80;100.00
22930;BME280;11630;42.660;23.292;2023-06-26T03:24:20;69744.88;;;19.85;100.00
22930;BME280;11630;42.660;23.292;2023-06-26T03:26:52;69724.52;;;19.79;100.00
22930;BME280;11630;42.660;23.292;2023-06-26T03:29:23;69734.12;;;19.86;100.00
22930;BME280;11630;42.660;23.292;2023-06-26T03:31:54;69719.89;;;19.66;100.00
22930;BME280;11630;42.660;23.292;2023-06-26T03:34:25;69706.43;;;19.60;100.00
22930;BME280;11630;42.660;23.292;2023-06-26T03:36:55;69711.44;;;19.52;100.00
22930;BME280;11630;42.660;23.292;2023-06-26T03:39:26;69708.95;;;19.51;100.00
22930;BME280;11630;42.660;23.292;2023-06-26T03:41:57;69707.84;;;19.55;100.00
22930;BME280;11630;42.660;23.292;2023-06-26T03:44:28;69701.53;;;19.50;100.00
22930;BME280;11630;42.660;23.292;2023-06-26T03:46:59;69702.30;;;19.60;100.00
22930;BME280;11630;42.660;23.292;2023-06-26T03:49:31;69699.86;;;19.54;100.00
22930;BME280;11630;42.660;23.292;2023-06-26T03:52:01;69695.16;;;19.56;100.00
22930;BME280;11630;42.660;23.292;2023-06-26T03:54:32;69703.67;;;19.60;100.00
22930;BME280;11630;42.660;23.292;2023-06-26T03:57:03;69711.64;;;19.63;100.00
22930;BME280;11630;42.660;23.292;2023-06-26T03:59:35;69692.93;;;19.59;100.00
22930;BME280;11630;42.660;23.292;2023-06-26T04:02:06;69703.95;;;19.59;100.00
22930;BME280;11630;42.660;23.292;2023-06-26T04:04:36;69698.18;;;19.57;100.00
22930;BME280;11630;42.660;23.292;2023-06-26T04:07:07;69716.90;;;19.62;100.00
22930;BME280;11630;42.660;23.292;2023-06-26T04:09:37;69724.33;;;19.65;100.00
22930;BME280;11630;42.660;23.292;2023-06-26T04:12:08;69709.70;;;19.68;100.00
22930;BME280;11630;42.660;23.292;2023-06-26T04:14:39;69714.88;;;19.76;100.00
22930;BME280;11630;42.660;23.292;2023-06-26T04:17:10;69725.02;;;19.84;100.00
22930;BME280;11630;42.660;23.292;2023-06-26T04:19:41;69729.68;;;19.90;100.00
22930;BME280;11630;42.660;23.292;2023-06-26T04:22:11;69751.42;;;20.01;100.00
22930;BME280;11630;42.660;23.292;2023-06-26T04:24:43;69756.63;;;20.07;100.00
22930;BME280;11630;42.660;23.292;2023-06-26T04:27:14;69768.44;;;20.13;100.00
22930;BME280;11630;42.660;23.292;2023-06-26T04:29:46;69783.76;;;20.32;100.00
22930;BME280;11630;42.660;23.292;2023-06-26T04:32:17;69787.12;;;20.25;100.00
22930;BME280;11630;42.660;23.292;2023-06-26T04:34:49;69787.94;;;20.27;100.00
22930;BME280;11630;42.660;23.292;2023-06-26T04:37:20;69789.28;;;20.32;100.00
22930;BME280;11630;42.660;23.292;2023-06-26T04:39:51;69802.45;;;20.44;100.00
22930;BME280;11630;42.660;23.292;2023-06-26T04:42:22;69808.97;;;20.58;100.00
22930;BME280;11630;42.660;23.292;2023-06-26T04:44:54;69796.08;;;20.47;100.00
22930;BME280;11630;42.660;23.292;2023-06-26T04:47:23;69808.75;;;20.51;100.00
22930;BME280;11630;42.660;23.292;2023-06-26T04:49:55;69816.08;;;20.69;100.00
22930;BME280;11630;42.660;23.292;2023-06-26T04:52:26;69822.17;;;20.67;100.00
22930;BME280;11630;42.660;23.292;2023-06-26T04:54:57;69829.90;;;20.67;100.00
22930;BME280;11630;42.660;23.292;2023-06-26T04:57:28;69843.34;;;20.83;100.00
22930;BME280;11630;42.660;23.292;2023-06-26T04:59:59;69847.38;;;20.97;100.00
22930;BME280;11630;42.660;23.292;2023-06-26T05:02:30;69862.55;;;21.00;100.00
22930;BME280;11630;42.660;23.292;2023-06-26T05:05:02;69865.89;;;20.95;100.00
22930;BME280;11630;42.660;23.292;2023-06-26T05:07:32;69850.67;;;20.98;100.00
22930;BME280;11630;42.660;23.292;2023-06-26T05:10:02;69879.34;;;21.09;100.00
22930;BME280;11630;42.660;23.292;2023-06-26T05:12:33;69852.66;;;20.91;100.00
22930;BME280;11630;42.660;23.292;2023-06-26T05:15:02;69887.63;;;21.09;100.00
22930;BME280;11630;42.660;23.292;2023-06-26T05:17:33;69874.31;;;21.17;100.00
22930;BME280;11630;42.660;23.292;2023-06-26T05:20:05;69904.09;;;21.24;100.00
22930;BME280;11630;42.660;23.292;2023-06-26T05:22:37;69894.10;;;21.30;100.00
22930;BME280;11630;42.660;23.292;2023-06-26T05:25:09;69860.00;;;21.09;100.00
22930;BME280;11630;42.660;23.292;2023-06-26T05:27:40;69842.50;;;20.83;100.00
22930;BME280;11630;42.660;23.292;2023-06-26T05:30:14;69859.38;;;20.82;100.00
22930;BME280;11630;42.660;23.292;2023-06-26T05:32:46;69839.52;;;20.77;100.00
22930;BME280;11630;42.660;23.292;2023-06-26T05:35:20;69865.35;;;20.95;100.00
22930;BME280;11630;42.660;23.292;2023-06-26T05:37:52;69835.45;;;20.62;100.00
22930;BME280;11630;42.660;23.292;2023-06-26T05:40:23;69848.84;;;20.85;100.00
22930;BME280;11630;42.660;23.292;2023-06-26T05:42:55;69865.27;;;21.05;100.00
22930;BME280;11630;42.660;23.292;2023-06-26T05:45:24;69854.63;;;20.89;100.00
22930;BME280;11630;42.660;23.292;2023-06-26T05:47:55;69861.17;;;21.00;100.00
22930;BME280;11630;42.660;23.292;2023-06-26T05:50:27;69864.19;;;21.04;100.00
22930;BME280;11630;42.660;23.292;2023-06-26T05:52:58;69877.42;;;21.06;100.00
22930;BME280;11630;42.660;23.292;2023-06-26T05:55:29;69874.35;;;21.09;100.00
22930;BME280;11630;42.660;23.292;2023-06-26T05:58:00;69871.80;;;21.18;100.00
22930;BME280;11630;42.660;23.292;2023-06-26T06:00:32;69933.47;;;21.54;100.00
22930;BME280;11630;42.660;23.292;2023-06-26T06:03:04;69936.67;;;21.69;100.00
22930;BME280;11630;42.660;23.292;2023-06-26T06:05:34;69940.36;;;21.57;100.00
22930;BME280;11630;42.660;23.292;2023-06-26T06:08:05;69921.30;;;21.56;100.00
22930;BME280;11630;42.660;23.292;2023-06-26T06:10:35;69906.92;;;21.53;100.00
22930;BME280;11630;42.660;23.292;2023-06-26T06:13:06;69948.42;;;21.86;100.00
22930;BME280;11630;42.660;23.292;2023-06-26T06:15:37;69961.73;;;21.83;100.00
22930;BME280;11630;42.660;23.292;2023-06-26T06:18:08;69989.48;;;22.07;100.00
22930;BME280;11630;42.660;23.292;2023-06-26T06:20:38;70016.43;;;22.32;100.00
22930;BME280;11630;42.660;23.292;2023-06-26T06:23:10;70063.69;;;22.74;100.00
22930;BME280;11630;42.660;23.292;2023-06-26T06:25:40;70040.25;;;22.62;100.00
22930;BME280;11630;42.660;23.292;2023-06-26T06:28:10;70014.20;;;22.32;100.00
22930;BME280;11630;42.660;23.292;2023-06-26T06:30:41;70039.77;;;22.54;100.00
22930;BME280;11630;42.660;23.292;2023-06-26T06:33:13;70011.45;;;22.30;100.00
22930;BME280;11630;42.660;23.292;2023-06-26T06:35:44;69975.19;;;21.94;100.00
22930;BME280;11630;42.660;23.292;2023-06-26T06:38:14;69982.80;;;22.11;100.00
22930;BME280;11630;42.660;23.292;2023-06-26T06:40:45;70000.18;;;22.18;100.00
22930;BME280;11630;42.660;23.292;2023-06-26T06:43:16;69989.00;;;21.99;100.00
22930;BME280;11630;42.660;23.292;2023-06-26T06:45:46;70015.66;;;22.22;100.00
22930;BME280;11630;42.660;23.292;2023-06-26T06:48:16;70016.84;;;22.47;100.00
22930;BME280;11630;42.660;23.292;2023-06-26T06:50:47;70062.59;;;22.73;100.00
22930;BME280;11630;42.660;23.292;2023-06-26T06:53:19;70112.29;;;23.27;100.00
22930;BME280;11630;42.660;23.292;2023-06-26T06:55:51;70159.23;;;23.47;100.00
22930;BME280;11630;42.660;23.292;2023-06-26T06:58:21;70163.71;;;23.72;100.00
22930;BME280;11630;42.660;23.292;2023-06-26T07:00:53;70214.29;;;24.23;100.00
22930;BME280;11630;42.660;23.292;2023-06-26T07:03:24;70220.81;;;24.10;100.00
22930;BME280;11630;42.660;23.292;2023-06-26T07:05:55;70188.14;;;23.74;100.00
22930;BME280;11630;42.660;23.292;2023-06-26T07:08:26;70121.66;;;23.33;100.00
22930;BME280;11630;42.660;23.292;2023-06-26T07:10:58;70186.78;;;23.69;100.00
22930;BME280;11630;42.660;23.292;2023-06-26T07:13:29;70165.09;;;23.72;100.00
22930;BME280;11630;42.660;23.292;2023-06-26T07:15:59;70165.09;;;23.72;100.00
22930;BME280;11630;42.660;23.292;2023-06-26T07:18:31;70232.40;;;24.18;100.00
22930;BME280;11630;42.660;23.292;2023-06-26T07:21:02;70196.48;;;24.01;100.00
22930;BME280;11630;42.660;23.292;2023-06-26T07:23:33;70260.30;;;24.61;100.00
22930;BME280;11630;42.660;23.292;2023-06-26T07:26:03;70230.98;;;24.20;100.00
22930;BME280;11630;42.660;23.292;2023-06-26T07:28:35;70268.51;;;24.47;100.00
22930;BME280;11630;42.660;23.292;2023-06-26T07:31:07;70216.97;;;24.06;100.00
22930;BME280;11630;42.660;23.292;2023-06-26T07:33:38;70212.89;;;24.25;100.00
22930;BME280;11630;42.660;23.292;2023-06-26T07:36:09;70259.32;;;24.50;100.00
22930;BME280;11630;42.660;23.292;2023-06-26T07:38:41;70307.05;;;24.82;100.00
22930;BME280;11630;42.660;23.292;2023-06-26T07:41:13;70293.02;;;24.68;100.00
22930;BME280;11630;42.660;23.292;2023-06-26T07:43:45;70337.29;;;25.16;97.96
22930;BME280;11630;42.660;23.292;2023-06-26T07:46:15;70402.64;;;25.69;92.73
22930;BME280;11630;42.660;23.292;2023-06-26T07:48:46;70423.59;;;25.88;92.90
22930;BME280;11630;42.660;23.292;2023-06-26T07:51:17;70393.83;;;25.61;95.89
22930;BME280;11630;42.660;23.292;2023-06-26T07:53:48;70408.44;;;25.73;95.60
22930;BME280;11630;42.660;23.292;2023-06-26T07:56:18;70418.92;;;25.82;92.81
22930;BME280;11630;42.660;23.292;2023-06-26T07:58:49;70369.88;;;25.38;92.75
22930;BME280;11630;42.660;23.292;2023-06-26T08:01:19;70417.17;;;25.88;91.26
22930;BME280;11630;42.660;23.292;2023-06-26T08:03:50;70406.78;;;25.71;88.01
22930;BME280;11630;42.660;23.292;2023-06-26T08:06:21;70422.49;;;25.87;88.40
22930;BME280;11630;42.660;23.292;2023-06-26T08:08:53;70313.73;;;25.06;89.42
22930;BME280;11630;42.660;23.292;2023-06-26T08:11:24;70248.34;;;24.35;90.86
22930;BME280;11630;42.660;23.292;2023-06-26T08:13:55;70337.09;;;25.07;90.23
22930;BME280;11630;42.660;23.292;2023-06-26T08:16:25;70279.44;;;24.64;90.63
22930;BME280;11630;42.660;23.292;2023-06-26T08:18:56;70302.84;;;24.86;91.39
22930;BME280;11630;42.660;23.292;2023-06-26T08:21:27;70291.91;;;24.67;90.97
22930;BME280;11630;42.660;23.292;2023-06-26T08:23:58;70273.41;;;24.59;93.04
22930;BME280;11630;42.660;23.292;2023-06-26T08:26:29;70285.31;;;24.61;93.40
22930;BME280;11630;42.660;23.292;2023-06-26T08:29:00;70325.78;;;24.98;91.64
22930;BME280;11630;42.660;23.292;2023-06-26T08:31:31;70364.18;;;25.48;91.55
22930;BME280;11630;42.660;23.292;2023-06-26T08:34:02;70393.01;;;25.59;91.26
22930;BME280;11630;42.660;23.292;2023-06-26T08:36:33;70393.61;;;25.81;88.06
22930;BME280;11630;42.660;23.292;2023-06-26T08:39:03;70399.70;;;25.84;89.35
22930;BME280;11630;42.660;23.292;2023-06-26T08:41:34;70407.78;;;25.82;85.73
22930;BME280;11630;42.660;23.292;2023-06-26T08:44:06;70439.48;;;26.10;84.20
22930;BME280;11630;42.660;23.292;2023-06-26T08:46:37;70487.84;;;26.44;83.88
22930;BME280;11630;42.660;23.292;2023-06-26T08:49:16;70498.48;;;26.63;79.22
22930;BME280;11630;42.660;23.292;2023-06-26T08:51:51;70545.19;;;26.96;79.47
22930;BME280;11630;42.660;23.292;2023-06-26T08:54:22;70548.75;;;27.03;77.62
22930;BME280;11630;42.660;23.292;2023-06-26T08:56:52;70491.98;;;26.49;79.08
22930;BME280;11630;42.660;23.292;2023-06-26T08:59:27;70422.49;;;25.87;79.47
22930;BME280;11630;42.660;23.292;2023-06-26T09:01:58;70438.20;;;26.00;79.83
22930;BME280;11630;42.660;23.292;2023-06-26T09:04:30;70436.53;;;26.01;79.59
22930;BME280;11630;42.660;23.292;2023-06-26T09:07:00;70427.38;;;25.99;78.60
22930;BME280;11630;42.660;23.292;2023-06-26T09:09:31;70467.98;;;26.27;79.59
22930;BME280;11630;42.660;23.292;2023-06-26T09:12:02;70392.83;;;25.76;81.01
22930;BME280;11630;42.660;23.292;2023-06-26T09:14:33;70416.17;;;25.80;81.22
22930;BME280;11630;42.660;23.292;2023-06-26T09:17:04;70351.86;;;25.31;81.38
22930;BME280;11630;42.660;23.292;2023-06-26T09:19:36;70368.20;;;25.39;81.65
22930;BME280;11630;42.660;23.292;2023-06-26T09:22:11;70399.62;;;25.65;80.62
22930;BME280;11630;42.660;23.292;2023-06-26T09:24:40;70345.61;;;25.19;80.46
22930;BME280;11630;42.660;23.292;2023-06-26T09:27:11;70412.25;;;25.81;80.65
22930;BME280;11630;42.660;23.292;2023-06-26T09:29:42;70404.83;;;25.71;80.74
22930;BME280;11630;42.660;23.292;2023-06-26T09:32:15;70374.80;;;25.45;81.51
22930;BME280;11630;42.660;23.292;2023-06-26T09:34:46;70394.90;;;25.64;82.68
22930;BME280;11630;42.660;23.292;2023-06-26T09:37:17;70499.70;;;26.56;79.34
22930;BME280;11630;42.660;23.292;2023-06-26T09:39:48;70477.05;;;26.39;79.73
22930;BME280;11630;42.660;23.292;2023-06-26T09:42:20;70536.05;;;26.92;77.50
22930;BME280;11630;42.660;23.292;2023-06-26T09:44:50;70494.17;;;26.51;75.49
22930;BME280;11630;42.660;23.292;2023-06-26T09:47:22;70448.92;;;26.13;74.07
22930;BME280;11630;42.660;23.292;2023-06-26T09:49:52;70471.81;;;26.33;73.01
22930;BME280;11630;42.660;23.292;2023-06-26T09:52:25;70447.84;;;26.10;75.42
22930;BME280;11630;42.660;23.292;2023-06-26T09:55:10;70517.03;;;26.73;72.56
22930;BME280;11630;42.660;23.292;2023-06-26T09:57:41;70517.88;;;26.73;72.54
22930;BME280;11630;42.660;23.292;2023-06-26T10:00:14;70404.97;;;25.85;71.92
22930;BME280;11630;42.660;23.292;2023-06-26T10:02:45;70567.44;;;27.25;70.43
22930;BME280;11630;42.660;23.292;2023-06-26T10:05:15;70570.17;;;27.30;68.21
22930;BME280;11630;42.660;23.292;2023-06-26T10:07:47;70564.72;;;27.20;68.35
22930;BME280;11630;42.660;23.292;2023-06-26T10:10:19;70580.23;;;27.29;67.29
22930;BME280;11630;42.660;23.292;2023-06-26T10:12:51;70603.69;;;27.49;66.43
22930;BME280;11630;42.660;23.292;2023-06-26T10:15:21;70688.70;;;28.28;65.46
22930;BME280;11630;42.660;23.292;2023-06-26T10:17:55;70686.76;;;28.27;63.67
22930;BME280;11630;42.660;23.292;2023-06-26T10:20:25;70644.22;;;27.89;63.85
22930;BME280;11630;42.660;23.292;2023-06-26T10:22:56;70611.38;;;27.58;65.27
22930;BME280;11630;42.660;23.292;2023-06-26T10:25:27;70571.38;;;27.23;65.90
22930;BME280;11630;42.660;23.292;2023-06-26T10:28:02;70559.14;;;27.20;66.11
22930;BME280;11630;42.660;23.292;2023-06-26T10:30:35;70603.62;;;27.54;65.35
22930;BME280;11630;42.660;23.292;2023-06-26T10:33:08;70572.52;;;27.22;61.73
22930;BME280;11630;42.660;23.292;2023-06-26T10:35:47;70492.08;;;26.63;63.29
22930;BME280;11630;42.660;23.292;2023-06-26T10:38:18;70478.41;;;26.41;63.62
22930;BME280;11630;42.660;23.292;2023-06-26T10:40:49;70479.65;;;26.53;64.81
22930;BME280;11630;42.660;23.292;2023-06-26T10:43:19;70614.17;;;27.61;63.29
22930;BME280;11630;42.660;23.292;2023-06-26T10:45:50;70621.05;;;27.68;62.71
22930;BME280;11630;42.660;23.292;2023-06-26T10:48:21;70576.91;;;27.26;62.66
22930;BME280;11630;42.660;23.292;2023-06-26T10:50:53;70642.57;;;27.88;61.62
22930;BME280;11630;42.660;23.292;2023-06-26T10:53:24;70621.91;;;27.68;60.60
22930;BME280;11630;42.660;23.292;2023-06-26T10:56:05;70595.97;;;27.42;60.86
22930;BME280;11630;42.660;23.292;2023-06-26T10:58:41;70628.45;;;27.79;60.71
22930;BME280;11630;42.660;23.292;2023-06-26T11:01:17;70501.59;;;26.59;64.35
22930;BME280;11630;42.660;23.292;2023-06-26T11:04:03;70510.42;;;26.67;64.21
22930;BME280;11630;42.660;23.292;2023-06-26T11:06:31;70454.63;;;26.25;64.67
22930;BME280;11630;42.660;23.292;2023-06-26T11:09:09;70498.59;;;26.55;65.96
22930;BME280;11630;42.660;23.292;2023-06-26T11:11:55;70610.55;;;27.59;64.19
22930;BME280;11630;42.660;23.292;2023-06-26T11:14:27;70577.20;;;27.25;64.23
22930;BME280;11630;42.660;23.292;2023-06-26T11:16:58;70643.39;;;27.90;61.42
22930;BME280;11630;42.660;23.292;2023-06-26T11:19:30;70677.63;;;28.18;61.02
22930;BME280;11630;42.660;23.292;2023-06-26T11:22:02;70659.13;;;28.03;60.53
22930;BME280;11630;42.660;23.292;2023-06-26T11:24:33;70605.02;;;27.54;61.84
22930;BME280;11630;42.660;23.292;2023-06-26T11:27:04;70512.20;;;26.80;62.26
22930;BME280;11630;42.660;23.292;2023-06-26T11:29:35;70579.30;;;27.37;62.65
22930;BME280;11630;42.660;23.292;2023-06-26T11:32:06;70600.83;;;27.54;59.70
22930;BME280;11630;42.660;23.292;2023-06-26T11:34:36;70602.01;;;27.50;59.90
22930;BME280;11630;42.660;23.292;2023-06-26T11:37:06;70558.39;;;27.13;61.48
22930;BME280;11630;42.660;23.292;2023-06-26T11:39:37;70529.05;;;26.94;61.37
22930;BME280;11630;42.660;23.292;2023-06-26T11:42:10;70500.80;;;26.57;62.77
22930;BME280;11630;42.660;23.292;2023-06-26T11:44:41;70482.51;;;26.48;63.23
22930;BME280;11630;42.660;23.292;2023-06-26T11:47:20;70460.45;;;26.26;63.21
22930;BME280;11630;42.660;23.292;2023-06-26T11:49:50;70492.44;;;26.57;62.63
22930;BME280;11630;42.660;23.292;2023-06-26T11:52:21;70493.59;;;26.53;61.65
22930;BME280;11630;42.660;23.292;2023-06-26T11:54:52;70467.39;;;26.29;62.97
22930;BME280;11630;42.660;23.292;2023-06-26T11:57:23;70427.95;;;25.97;64.06
22930;BME280;11630;42.660;23.292;2023-06-26T11:59:54;70474.56;;;26.35;64.38
22930;BME280;11630;42.660;23.292;2023-06-26T12:02:24;70545.38;;;27.05;63.41
22930;BME280;11630;42.660;23.292;2023-06-26T12:04:56;70670.09;;;28.17;60.99
22930;BME280;11630;42.660;23.292;2023-06-26T12:07:26;70697.58;;;28.33;59.34
22930;BME280;11630;42.660;23.292;2023-06-26T12:09:58;70670.76;;;28.10;58.04
22930;BME280;11630;42.660;23.292;2023-06-26T12:12:30;70648.65;;;27.93;56.37
22930;BME280;11630;42.660;23.292;2023-06-26T12:15:06;70732.84;;;28.70;56.13
22930;BME280;11630;42.660;23.292;2023-06-26T12:17:40;70698.52;;;28.44;56.17
22930;BME280;11630;42.660;23.292;2023-06-26T12:20:24;70717.92;;;28.57;55.83
22930;BME280;11630;42.660;23.292;2023-06-26T12:22:55;70831.53;;;29.55;55.12
22930;BME280;11630;42.660;23.292;2023-06-26T12:25:26;70876.82;;;29.98;53.78
22930;BME280;11630;42.660;23.292;2023-06-26T12:27:57;70947.32;;;30.63;51.74
22930;BME280;11630;42.660;23.292;2023-06-26T12:30:28;70966.11;;;30.80;51.11
22930;BME280;11630;42.660;23.292;2023-06-26T12:32:59;70939.88;;;30.55;51.92
22930;BME280;11630;42.660;23.292;2023-06-26T12:35:32;70914.97;;;30.33;51.46
22930;BME280;11630;42.660;23.292;2023-06-26T12:38:01;70911.91;;;30.31;51.58
22930;BME280;11630;42.660;23.292;2023-06-26T12:40:32;70782.05;;;29.12;52.61
22930;BME280;11630;42.660;23.292;2023-06-26T12:43:03;70641.75;;;27.86;55.31
22930;BME280;11630;42.660;23.292;2023-06-26T12:45:41;70571.63;;;27.25;57.95
22930;BME280;11630;42.660;23.292;2023-06-26T12:48:13;70629.80;;;27.81;57.29
22930;BME280;11630;42.660;23.292;2023-06-26T12:50:47;70560.61;;;27.15;59.25
22930;BME280;11630;42.660;23.292;2023-06-26T12:53:17;70556.64;;;27.19;59.92
22930;BME280;11630;42.660;23.292;2023-06-26T12:55:51;70618.88;;;27.64;59.35
22930;BME280;11630;42.660;23.292;2023-06-26T12:58:23;70647.58;;;27.90;58.60
22930;BME280;11630;42.660;23.292;2023-06-26T13:00:54;70601.75;;;27.48;59.87
22930;BME280;11630;42.660;23.292;2023-06-26T13:03:25;70494.98;;;26.53;62.77
22930;BME280;11630;42.660;23.292;2023-06-26T13:05:58;70547.95;;;27.01;62.70
22930;BME280;11630;42.660;23.292;2023-06-26T13:08:28;70582.14;;;27.32;62.19
22930;BME280;11630;42.660;23.292;2023-06-26T13:10:59;70539.69;;;26.91;62.74